Amlin, Ohio
Current Conditions -  °F | °C
As of 4:53 AM on Friday 19 Dec 2014 (Local Time) from KOSU Reporting Station
Overcast Overcast  
Wind Chill: 21°   Ceiling: 2300
Heat Index: 28°   Visibility: 8mi
Dew Point: 22°   Wind: 7mph
Humidity: 78%   Direction: 280°W
Pressure: 30.21"   Gusts: NA
Location:  40.08°N, 83.18°W
Report Text: KOSU 190953Z AUTO 28006KT 8SM OVC023 M02/M06 A3021 RMK AO2 SLP241 T10221056
Loading
Personal Weather Stations






























Interactive Weather Map New forecast layout! Learn more

10-Day Weather Forecast

Advertisements
Track Severe Weather on mobile